Graettinger, Iowa
Current Conditions -  °F | °C
As of 10:52 AM on Saturday 25 Oct 2014 (Local Time) from KEST Reporting Station
Clear Clear  
Wind Chill: 60°   Ceiling: Unl
Heat Index: 60°   Visibility: 10mi
Dew Point: 35°   Wind: 8mph
Humidity: 39%   Direction: 350°N
Pressure: 30.13"   Gusts: NA
Location:  43.24°N, 94.75°W
Report Text: KEST 251552Z AUTO 35007KT 10SM CLR 16/02 A3013 RMK AO2 SLP203 T01560017
Loading
Personal Weather Stations






























Interactive Weather Map
Tropical Storm Tracking
New forecast layout! Learn more

10-Day Weather Forecast

Advertisements
Track Severe Weather on mobile